createdAt,value
2023-02-01T00:01:29.833Z,2.44
2023-02-01T00:06:36.279Z,2.45
2023-02-01T00:11:44.367Z,2.46
2023-02-01T00:16:50.931Z,2.46
2023-02-01T00:21:57.383Z,2.44
2023-02-01T00:27:05.121Z,2.43
2023-02-01T00:32:11.166Z,2.43
2023-02-01T00:37:17.435Z,2.42
2023-02-01T00:42:25.442Z,2.39
2023-02-01T00:47:31.884Z,2.37
2023-02-01T00:52:38.153Z,2.35
2023-02-01T00:57:45.783Z,2.33
2023-02-01T01:02:51.842Z,2.31
2023-02-01T01:07:58.088Z,2.29
2023-02-01T01:13:08.368Z,2.25
2023-02-01T01:18:14.994Z,2.23
2023-02-01T01:23:21.963Z,2.21
2023-02-01T01:28:29.713Z,2.19
2023-02-01T01:33:36.128Z,2.15
2023-02-01T01:38:43.881Z,2.16
2023-02-01T01:44:00.945Z,2.18
2023-02-01T01:49:13.168Z,2.20
2023-02-01T01:54:24.323Z,2.20
2023-02-01T01:59:34.072Z,2.17
2023-02-01T02:04:42.056Z,2.17
2023-02-01T02:10:00.189Z,2.15
2023-02-01T02:15:11.437Z,2.12
2023-02-01T02:21:12.519Z,2.13
2023-02-01T02:26:45.688Z,2.13
2023-02-01T02:32:24.528Z,2.11
2023-02-01T02:37:41.811Z,2.08
2023-02-01T02:43:14.874Z,2.07
2023-02-01T02:48:28.920Z,2.09
2023-02-01T02:54:01.350Z,2.13
2023-02-01T02:59:27.001Z,2.13
2023-02-01T03:04:33.370Z,2.15
2023-02-01T03:09:46.417Z,2.18
2023-02-01T03:15:00.291Z,2.17
2023-02-01T03:20:08.839Z,2.18
2023-02-01T03:25:22.982Z,2.20
2023-02-01T03:30:34.344Z,2.22
2023-02-01T03:36:03.855Z,2.25
2023-02-01T03:41:20.551Z,2.26
2023-02-01T03:46:35.257Z,2.28
2023-02-01T03:51:44.392Z,2.27
2023-02-01T03:56:53.577Z,2.27
2023-02-01T04:01:59.805Z,2.28
2023-02-01T04:07:06.603Z,2.31
2023-02-01T04:12:14.319Z,2.31
2023-02-01T04:17:20.587Z,2.32
2023-02-01T04:22:26.733Z,2.33
2023-02-01T04:27:35.902Z,2.34
2023-02-01T04:32:42.398Z,2.35
2023-02-01T04:37:48.686Z,2.33
2023-02-01T04:42:56.833Z,2.34
2023-02-01T04:48:03.059Z,2.35
2023-02-01T04:53:09.728Z,2.37
2023-02-01T04:58:17.584Z,2.38
2023-02-01T05:03:24.890Z,2.39
2023-02-01T05:08:31.263Z,2.40
2023-02-01T05:13:53.280Z,2.39
2023-02-01T05:19:01.453Z,2.42
2023-02-01T05:24:14.399Z,2.40
2023-02-01T05:29:24.060Z,2.41
2023-02-01T05:34:31.674Z,2.40
2023-02-01T05:39:37.946Z,2.43
2023-02-01T05:44:46.143Z,2.43
2023-02-01T05:49:52.453Z,2.42
2023-02-01T05:54:59.113Z,2.40
2023-02-01T06:00:08.969Z,2.39
2023-02-01T06:05:19.204Z,2.38
2023-02-01T06:10:26.049Z,2.38
2023-02-01T06:15:34.147Z,2.37
2023-02-01T06:20:40.714Z,2.37
2023-02-01T06:25:47.373Z,2.38
2023-02-01T06:30:55.395Z,2.39
2023-02-01T06:36:03.232Z,2.38
2023-02-01T06:41:10.128Z,2.38
2023-02-01T06:46:17.991Z,2.39
2023-02-01T06:51:27.947Z,2.37
2023-02-01T06:56:35.548Z,2.38
2023-02-01T07:01:43.412Z,2.37
2023-02-01T07:06:49.887Z,2.36
2023-02-01T07:11:56.143Z,2.34
2023-02-01T07:17:03.930Z,2.35
2023-02-01T07:22:10.450Z,2.35
2023-02-01T07:27:16.771Z,2.34
2023-02-01T07:32:24.703Z,2.34
2023-02-01T07:37:31.155Z,2.34
2023-02-01T07:42:37.870Z,2.37
2023-02-01T07:47:46.963Z,2.38
2023-02-01T07:52:54.707Z,2.42
2023-02-01T07:58:01.776Z,2.42
2023-02-01T08:03:09.426Z,2.44
2023-02-01T08:08:16.645Z,2.46
2023-02-01T08:13:22.712Z,2.48
2023-02-01T08:18:31.086Z,2.52
2023-02-01T08:23:39.172Z,2.53
2023-02-01T08:28:47.989Z,2.54
2023-02-01T08:33:58.310Z,2.52
2023-02-01T08:39:07.056Z,2.55
2023-02-01T08:44:13.375Z,2.58
2023-02-01T08:49:21.207Z,2.60
2023-02-01T08:54:27.614Z,2.60
2023-02-01T08:59:33.938Z,2.63
2023-02-01T09:04:43.210Z,2.64
2023-02-01T09:09:49.427Z,2.68
2023-02-01T09:14:55.800Z,2.73
2023-02-01T09:20:04.257Z,2.76
2023-02-01T09:25:14.022Z,2.78
2023-02-01T09:30:20.709Z,2.87
2023-02-01T09:35:28.983Z,2.90
2023-02-01T09:40:40.382Z,2.96
2023-02-01T09:46:00.320Z,2.99
2023-02-01T09:51:16.161Z,3.00
2023-02-01T09:56:27.366Z,3.01
2023-02-01T10:01:35.722Z,3.07
2023-02-01T10:07:03.440Z,3.08
2023-02-01T10:13:00.506Z,3.15
2023-02-01T10:18:46.350Z,3.28
2023-02-01T10:24:20.628Z,3.28
2023-02-01T10:29:33.822Z,3.39
2023-02-01T10:34:40.153Z,3.54
2023-02-01T10:39:50.217Z,3.62
2023-02-01T10:45:04.052Z,3.64
2023-02-01T10:50:22.758Z,3.57
2023-02-01T10:55:53.127Z,3.53
2023-02-01T11:01:04.196Z,3.52
2023-02-01T11:06:30.929Z,3.51
2023-02-01T11:11:58.505Z,3.47
2023-02-01T11:17:23.622Z,3.44
2023-02-01T11:22:31.439Z,3.48
2023-02-01T11:27:53.136Z,3.54
2023-02-01T11:33:01.893Z,3.56
2023-02-01T11:38:22.186Z,3.57
2023-02-01T11:43:31.701Z,3.57
2023-02-01T11:48:38.081Z,3.58
2023-02-01T11:54:06.276Z,3.59
2023-02-01T11:59:39.063Z,3.59
2023-02-01T12:05:10.945Z,3.60
2023-02-01T12:10:33.002Z,3.60
2023-02-01T12:15:59.796Z,3.62
2023-02-01T12:21:25.464Z,3.62
2023-02-01T12:27:18.124Z,3.66
2023-02-01T12:32:49.065Z,3.67
2023-02-01T12:38:19.270Z,3.73
2023-02-01T12:43:40.855Z,3.80
2023-02-01T12:49:01.651Z,3.88
2023-02-01T12:54:16.345Z,3.88
2023-02-01T12:59:30.265Z,3.86
2023-02-01T13:04:46.324Z,3.85
2023-02-01T13:10:01.252Z,3.84
2023-02-01T13:15:19.014Z,3.83
2023-02-01T13:20:34.394Z,3.83
2023-02-01T13:25:51.416Z,3.79
2023-02-01T13:31:49.525Z,3.76
2023-02-01T13:37:19.673Z,3.72
2023-02-01T13:42:30.264Z,3.71
2023-02-01T13:47:43.540Z,3.71
2023-02-01T13:52:58.093Z,3.71
2023-02-01T13:58:16.742Z,3.73
2023-02-01T14:03:25.435Z,3.74
2023-02-01T14:09:08.287Z,3.75
2023-02-01T14:14:53.710Z,3.78
2023-02-01T14:20:47.002Z,3.78
2023-02-01T14:26:16.239Z,3.78
2023-02-01T14:31:45.028Z,3.78
2023-02-01T14:36:59.405Z,3.76
2023-02-01T14:42:23.277Z,3.73
2023-02-01T14:47:35.882Z,3.72
2023-02-01T14:52:47.598Z,3.68
2023-02-01T14:58:00.872Z,3.69
2023-02-01T15:03:42.585Z,3.68
2023-02-01T15:08:49.674Z,3.64
2023-02-01T15:13:59.381Z,3.64
2023-02-01T15:19:16.416Z,3.65
2023-02-01T15:24:26.299Z,3.63
2023-02-01T15:29:35.371Z,3.63
2023-02-01T15:34:51.844Z,3.60
2023-02-01T15:40:23.303Z,3.57
2023-02-01T15:45:35.480Z,3.57
2023-02-01T15:50:43.649Z,3.54
2023-02-01T15:55:54.645Z,3.52
2023-02-01T16:01:08.286Z,3.54
2023-02-01T16:06:30.670Z,3.53
2023-02-01T16:11:51.063Z,3.53
2023-02-01T16:17:01.667Z,3.53
2023-02-01T16:22:08.195Z,3.51
2023-02-01T16:27:15.868Z,3.51
2023-02-01T16:32:25.272Z,3.49
2023-02-01T16:37:33.681Z,3.49
2023-02-01T16:42:42.429Z,3.46
2023-02-01T16:47:53.710Z,3.46
2023-02-01T16:53:00.573Z,3.46
2023-02-01T16:58:10.714Z,3.43
2023-02-01T17:03:20.791Z,3.42
2023-02-01T17:08:35.361Z,3.42
2023-02-01T17:13:46.760Z,3.42
2023-02-01T17:19:00.523Z,3.41
2023-02-01T17:24:09.362Z,3.39
2023-02-01T17:29:17.242Z,3.38
2023-02-01T17:34:26.677Z,3.36
2023-02-01T17:39:51.564Z,3.36
2023-02-01T17:45:04.205Z,3.32
2023-02-01T17:50:16.087Z,3.32
2023-02-01T17:55:27.123Z,3.32
2023-02-01T18:00:38.103Z,3.31
2023-02-01T18:05:51.758Z,3.27
2023-02-01T18:11:01.856Z,3.26
2023-02-01T18:16:25.147Z,3.25
2023-02-01T18:21:42.063Z,3.23
2023-02-01T18:26:54.190Z,3.22
2023-02-01T18:32:07.095Z,3.22
2023-02-01T18:37:17.912Z,3.20
2023-02-01T18:42:27.515Z,3.21
2023-02-01T18:47:35.805Z,3.20
2023-02-01T18:52:47.440Z,3.18
2023-02-01T18:57:58.623Z,3.16
2023-02-01T19:03:07.667Z,3.15
2023-02-01T19:08:18.272Z,3.13
2023-02-01T19:13:30.493Z,3.14
2023-02-01T19:18:40.850Z,3.12
2023-02-01T19:23:50.773Z,3.12
2023-02-01T19:29:02.063Z,3.10
2023-02-01T19:34:13.367Z,3.06
2023-02-01T19:39:29.972Z,3.06
2023-02-01T19:44:40.331Z,3.05
2023-02-01T19:49:48.347Z,3.02
2023-02-01T19:55:01.865Z,3.00
2023-02-01T20:00:16.278Z,2.97
2023-02-01T20:05:25.837Z,2.95
2023-02-01T20:10:37.365Z,2.88
2023-02-01T20:15:47.450Z,2.87
2023-02-01T20:20:59.506Z,2.85
2023-02-01T20:26:16.368Z,2.86
2023-02-01T20:31:30.428Z,2.90
2023-02-01T20:36:40.578Z,2.85
2023-02-01T20:41:51.521Z,2.83
2023-02-01T20:46:59.866Z,2.82
2023-02-01T20:52:08.359Z,2.80
2023-02-01T20:57:21.189Z,2.80
2023-02-01T21:02:29.755Z,2.82
2023-02-01T21:07:39.087Z,2.81
2023-02-01T21:12:51.631Z,2.80
2023-02-01T21:18:05.521Z,2.80
2023-02-01T21:23:14.184Z,2.78
2023-02-01T21:28:23.801Z,2.75
2023-02-01T21:33:31.449Z,2.75
2023-02-01T21:38:40.353Z,2.71
2023-02-01T21:43:51.676Z,2.70
2023-02-01T21:49:05.372Z,2.72
2023-02-01T21:54:15.270Z,2.72
2023-02-01T21:59:23.438Z,2.74
2023-02-01T22:04:30.061Z,2.77
2023-02-01T22:09:39.310Z,2.79
2023-02-01T22:14:49.998Z,2.78
2023-02-01T22:19:56.780Z,2.77
2023-02-01T22:25:04.905Z,2.77
2023-02-01T22:30:16.686Z,2.78
2023-02-01T22:35:23.647Z,2.75
2023-02-01T22:40:30.738Z,2.72
2023-02-01T22:45:39.058Z,2.71
2023-02-01T22:50:45.990Z,2.67
2023-02-01T22:55:52.355Z,2.63
2023-02-01T23:01:09.858Z,2.62
2023-02-01T23:06:18.860Z,2.63
2023-02-01T23:11:26.051Z,2.63
2023-02-01T23:16:34.303Z,2.63
2023-02-01T23:21:40.743Z,2.63
2023-02-01T23:26:47.373Z,2.64
2023-02-01T23:31:55.603Z,2.63
2023-02-01T23:37:02.294Z,2.63
2023-02-01T23:42:09.054Z,2.63
2023-02-01T23:47:17.128Z,2.65
2023-02-01T23:52:24.078Z,2.63
2023-02-01T23:57:30.711Z,2.64
